Frobisher Bay: Past 24 Hour Conditions

 

Pond Inlet Airport

02:00 AM EST 26 November 2014
This table is a summary of hourly weather conditions for the past 24 hours.
Date / Time
(EST)
Wind(knots) Conditions Visibility(km) Pressure(kPa) Air tempC) Relative humidity(%) Dew pointC) Wind Chill
26 November 2014
2:00 calm Light Snow 13 100.0 -21 83 -23 *
1:00 NNW 2 Light Snow 16 100.0 -21 84 -23 -24
0:00 calm Cloudy 16 100.0 -21 84 -23 *
25 November 2014
23:00 SSE 3 Cloudy 16 100.0 -21 84 -23 -26
22:00 SSE 6 Cloudy 16 100.0 -22 83 -24 -30
21:00 SE 9 Cloudy 16 100.0 -23 82 -25 -33
20:00 SSE 8 Cloudy 16 100.1 -25 80 -27 -35
19:00 S 7 Partly Cloudy 24 100.1 -26 79 -28 -36
18:00 S 6 Mostly Cloudy 24 100.1 -25 80 -27 -33
17:00 SSE 8 Mostly Cloudy 24 100.1 -23 81 -25 -33
16:00 SSE 6 Mostly Cloudy 24 100.1 -23 82 -26 -32
15:00 SSE 4 Mostly Cloudy 24 100.1 -23 81 -26 -29
14:00 SSE 6 Mostly Cloudy 24 100.0 -23 83 -25 -31
13:00 SSE 8 Mostly Cloudy 24 100.0 -25 80 -27 -34
12:00 S 5 Mostly Cloudy 24 100.0 -24 79 -27 -31
11:00 SSE 5 Mostly Cloudy 24 100.0 -24 80 -27 -31
10:00 SSW 3 Clear 16 100.0 -23 83 -25 -28
9:00 SSE 4 Clear 16 99.9 -25 80 -27 -32
8:00 SSE 3 Clear 16 99.9 -24 79 -27 -29
7:00 S 5 Clear 16 99.9 -23 81 -26 -31
6:00 S 6 Clear 16 99.8 -23 81 -26 -31
5:00 S 6 Clear 16 99.8 -23 82 -26 -32
4:00 SSW 5 Partly Cloudy 16 99.7 -23 82 -25 -30
3:00 SSE 5 Clear 16 99.7 -24 80 -27 -32
2:00 S 6 Mainly Clear 16 99.6 -23 81 -25 -31
 
Map of Arctic - Eastern Arctic marine weather areas Baker Lake Airport Chesterfield Inlet Airport Coral Harbour Airport Gjoa Haven Airport Kugaaruk Airport Rankin Inlet Airport Shepherd Bay Airport Whale Cove Airport Arctic Bay Brevoort Island Qikiqtarjuaq Airport Cape Dorset Airport Cape Dyer Cape Hooper Clyde Airport Grise Fiord Airport Hall Beach Airport Igloolik Airport Iqaluit Airport Longstaff Bluff Pangnirtung Airport Pond Inlet Airport Repulse Bay Airport Resolute Airport Resolution Island Rowley Island Airport Taloyoak Airport Wager Bay Akulivik Airport Ivujivik Airport Puvirnituq Airport Kangiqsujuaq Airport Kangirsuk Airport Quaqtaq Airport Tasiujaq Airport Cape Kakkiviak Cape Kiglapait Nain Airport Saglek Cape Mercy Kimmirut Airport Aupaluk Airport Salluit Airport Kangiqsualujjuaq Airport Fort Ross
Legend: buoyBuoy land stationLand Station